createdAt,value
2023-03-26T00:01:23.933Z,90.00
2023-03-26T00:03:58.294Z,90.00
2023-03-26T00:06:29.465Z,90.30
2023-03-26T00:08:57.321Z,90.20
2023-03-26T00:11:24.854Z,90.20
2023-03-26T00:13:55.518Z,90.20
2023-03-26T00:16:22.361Z,90.00
2023-03-26T00:18:49.161Z,90.00
2023-03-26T00:21:17.254Z,90.00
2023-03-26T00:23:44.075Z,90.30
2023-03-26T00:26:11.328Z,89.90
2023-03-26T00:28:40.367Z,89.80
2023-03-26T00:31:08.373Z,90.20
2023-03-26T00:33:38.607Z,90.00
2023-03-26T00:36:06.330Z,90.00
2023-03-26T00:38:38.811Z,89.80
2023-03-26T00:41:06.436Z,89.50
2023-03-26T00:43:34.045Z,90.00
2023-03-26T00:46:02.510Z,90.00
2023-03-26T00:48:44.586Z,89.60
2023-03-26T00:51:12.708Z,90.00
2023-03-26T00:53:41.314Z,89.70
2023-03-26T00:56:08.424Z,89.90
2023-03-26T00:58:35.205Z,89.50
2023-03-26T01:01:03.639Z,89.50
2023-03-26T01:03:33.743Z,89.30
2023-03-26T01:06:10.024Z,89.00
2023-03-26T01:08:40.687Z,89.20
2023-03-26T01:11:13.976Z,89.00
2023-03-26T01:13:43.873Z,89.20
2023-03-26T01:16:25.316Z,89.00
2023-03-26T01:18:53.892Z,89.00
2023-03-26T01:21:22.901Z,89.10
2023-03-26T01:24:01.690Z,88.70
2023-03-26T01:26:28.524Z,88.90
2023-03-26T01:28:56.609Z,89.20
2023-03-26T01:31:25.188Z,88.80
2023-03-26T01:33:57.163Z,88.80
2023-03-26T01:36:27.473Z,88.90
2023-03-26T01:38:54.480Z,88.80
2023-03-26T01:41:24.484Z,88.80
2023-03-26T01:43:54.163Z,89.00
2023-03-26T01:46:21.188Z,89.10
2023-03-26T01:48:47.871Z,89.40
2023-03-26T01:51:16.102Z,89.00
2023-03-26T01:53:43.936Z,89.20
2023-03-26T01:56:23.114Z,88.90
2023-03-26T01:58:53.038Z,89.10
2023-03-26T02:01:24.641Z,89.10
2023-03-26T02:03:53.742Z,88.70
2023-03-26T02:06:25.834Z,88.90
2023-03-26T02:08:54.591Z,88.80
2023-03-26T02:11:23.399Z,88.40
2023-03-26T02:13:50.204Z,88.60
2023-03-26T02:16:19.192Z,88.60
2023-03-26T02:18:47.496Z,88.90
2023-03-26T02:21:15.631Z,89.20
2023-03-26T02:23:47.084Z,89.40
2023-03-26T02:26:14.855Z,89.50
2023-03-26T02:28:41.654Z,89.40
2023-03-26T02:31:11.278Z,89.20
2023-03-26T02:33:37.972Z,89.60
2023-03-26T02:36:05.275Z,89.70
2023-03-26T02:38:35.244Z,89.70
2023-03-26T02:41:02.459Z,89.80
2023-03-26T02:43:29.128Z,90.10
2023-03-26T02:45:56.270Z,90.30
2023-03-26T02:48:23.213Z,90.20
2023-03-26T02:50:54.710Z,90.10
2023-03-26T02:53:22.150Z,90.70
2023-03-26T02:55:48.815Z,90.70
2023-03-26T02:58:18.458Z,90.30
2023-03-26T03:00:48.946Z,90.70
2023-03-26T03:03:17.249Z,90.60
2023-03-26T03:05:44.633Z,90.80
2023-03-26T03:08:11.667Z,90.60
2023-03-26T03:10:39.611Z,90.60
2023-03-26T03:13:08.090Z,90.50
2023-03-26T03:15:35.207Z,90.40
2023-03-26T03:18:02.188Z,90.50
2023-03-26T03:20:30.434Z,91.00
2023-03-26T03:22:57.167Z,90.90
2023-03-26T03:25:26.180Z,91.10
2023-03-26T03:27:56.249Z,90.80
2023-03-26T03:30:24.298Z,91.30
2023-03-26T03:32:51.155Z,91.00
2023-03-26T03:35:17.927Z,91.50
2023-03-26T03:37:44.982Z,91.10
2023-03-26T03:40:11.866Z,91.50
2023-03-26T03:42:39.950Z,91.10
2023-03-26T03:45:07.251Z,91.20
2023-03-26T03:47:33.980Z,91.40
2023-03-26T03:50:00.600Z,91.30
2023-03-26T03:52:28.136Z,91.40
2023-03-26T03:54:56.628Z,91.50
2023-03-26T03:57:25.883Z,91.50
2023-03-26T03:59:52.566Z,91.10
2023-03-26T04:02:26.815Z,91.00
2023-03-26T04:04:54.370Z,91.00
2023-03-26T04:07:21.248Z,91.10
2023-03-26T04:09:47.975Z,91.30
2023-03-26T04:12:14.973Z,90.90
2023-03-26T04:14:41.645Z,91.00
2023-03-26T04:17:08.251Z,91.00
2023-03-26T04:19:34.937Z,91.00
2023-03-26T04:22:02.728Z,90.90
2023-03-26T04:24:29.706Z,90.80
2023-03-26T04:26:58.173Z,90.80
2023-03-26T04:29:27.987Z,91.00
2023-03-26T04:31:58.714Z,90.90
2023-03-26T04:34:25.969Z,90.80
2023-03-26T04:36:54.609Z,90.80
2023-03-26T04:39:29.213Z,90.70
2023-03-26T04:41:56.467Z,90.80
2023-03-26T04:44:23.735Z,90.70
2023-03-26T04:46:53.279Z,90.80
2023-03-26T04:49:20.061Z,90.80
2023-03-26T04:51:47.542Z,90.90
2023-03-26T04:54:14.422Z,90.90
2023-03-26T04:56:44.263Z,90.90
2023-03-26T04:59:15.945Z,90.90
2023-03-26T05:01:46.203Z,90.60
2023-03-26T05:04:13.643Z,90.70
2023-03-26T05:06:44.163Z,90.90
2023-03-26T05:09:10.817Z,90.70
2023-03-26T05:11:39.364Z,90.60
2023-03-26T05:14:07.296Z,90.50
2023-03-26T05:16:34.251Z,90.50
2023-03-26T05:19:00.925Z,90.30
2023-03-26T05:21:27.958Z,90.00
2023-03-26T05:23:57.518Z,90.10
2023-03-26T05:26:25.286Z,90.20
2023-03-26T05:28:52.793Z,90.00
2023-03-26T05:31:21.390Z,89.60
2023-03-26T05:33:48.682Z,89.80
2023-03-26T05:36:15.629Z,89.70
2023-03-26T05:38:42.887Z,89.80
2023-03-26T05:41:09.937Z,89.60
2023-03-26T05:43:36.702Z,89.80
2023-03-26T05:46:04.090Z,90.00
2023-03-26T05:48:31.013Z,90.10
2023-03-26T05:50:59.204Z,90.00
2023-03-26T05:53:26.204Z,90.00
2023-03-26T05:55:59.353Z,90.00
2023-03-26T05:58:37.282Z,90.00
2023-03-26T06:01:05.698Z,90.00
2023-03-26T06:03:33.079Z,90.10
2023-03-26T06:05:59.980Z,90.10
2023-03-26T06:08:27.755Z,90.20
2023-03-26T06:11:00.841Z,90.20
2023-03-26T06:13:28.072Z,90.30
2023-03-26T06:15:55.225Z,90.40
2023-03-26T06:18:23.355Z,90.50
2023-03-26T06:20:51.486Z,90.50
2023-03-26T06:23:18.359Z,90.40
2023-03-26T06:25:45.878Z,90.30
2023-03-26T06:28:14.229Z,90.30
2023-03-26T06:30:45.421Z,90.40
2023-03-26T06:33:15.361Z,90.40
2023-03-26T06:35:43.133Z,90.50
2023-03-26T06:38:11.512Z,90.60
2023-03-26T06:40:39.815Z,90.50
2023-03-26T06:43:10.650Z,90.40
2023-03-26T06:45:38.495Z,90.40
2023-03-26T06:48:08.403Z,90.30
2023-03-26T06:50:35.349Z,90.40
2023-03-26T06:53:02.170Z,90.20
2023-03-26T06:55:29.467Z,90.00
2023-03-26T06:57:59.138Z,89.90
2023-03-26T07:00:28.058Z,89.70
2023-03-26T07:02:55.259Z,89.70
2023-03-26T07:05:22.711Z,89.70
2023-03-26T07:07:49.876Z,90.00
2023-03-26T07:10:18.107Z,88.60
2023-03-26T07:12:44.843Z,86.40
2023-03-26T07:15:12.838Z,85.60
2023-03-26T07:17:39.649Z,83.70
2023-03-26T07:20:07.336Z,83.40
2023-03-26T07:22:34.102Z,81.30
2023-03-26T07:25:02.176Z,82.10
2023-03-26T07:27:35.194Z,80.50
2023-03-26T07:30:09.225Z,75.70
2023-03-26T07:32:54.922Z,77.50
2023-03-26T07:35:27.423Z,74.80
2023-03-26T07:37:56.981Z,74.90
2023-03-26T07:40:26.808Z,73.60
2023-03-26T07:42:53.430Z,71.90
2023-03-26T07:45:20.262Z,69.90
2023-03-26T07:47:47.185Z,64.80
2023-03-26T07:50:18.379Z,65.80
2023-03-26T07:52:45.815Z,64.20
2023-03-26T07:55:13.298Z,67.20
2023-03-26T07:58:09.468Z,67.20
2023-03-26T08:01:05.786Z,69.30
2023-03-26T08:03:45.188Z,70.30
2023-03-26T08:06:11.945Z,71.30
2023-03-26T08:08:43.315Z,70.40
2023-03-26T08:11:30.632Z,70.90
2023-03-26T08:14:16.097Z,71.70
2023-03-26T08:16:42.836Z,72.80
2023-03-26T08:19:13.290Z,73.70
2023-03-26T08:21:46.660Z,73.50
2023-03-26T08:24:32.042Z,72.80
2023-03-26T08:27:08.735Z,73.50
2023-03-26T08:29:51.622Z,72.30
2023-03-26T08:32:21.014Z,72.60
2023-03-26T08:34:48.287Z,70.70
2023-03-26T08:37:15.471Z,71.00
2023-03-26T08:39:42.531Z,70.80
2023-03-26T08:42:09.328Z,71.30
2023-03-26T08:44:40.710Z,72.80
2023-03-26T08:47:22.543Z,71.20
2023-03-26T08:49:52.999Z,71.30
2023-03-26T08:52:37.225Z,72.40
2023-03-26T08:55:04.334Z,69.00
2023-03-26T08:58:05.137Z,70.70
2023-03-26T09:00:55.534Z,70.50
2023-03-26T09:06:35.068Z,71.80
2023-03-26T09:09:20.768Z,71.50
2023-03-26T09:15:02.944Z,69.00
2023-03-26T09:17:31.089Z,68.20
2023-03-26T09:20:07.507Z,65.00
2023-03-26T09:22:55.010Z,68.80
2023-03-26T09:25:41.833Z,67.20
2023-03-26T09:28:28.840Z,66.70
2023-03-26T09:31:01.657Z,66.50
2023-03-26T09:39:58.118Z,63.90
2023-03-26T09:43:03.956Z,62.60
2023-03-26T09:51:53.697Z,62.50
2023-03-26T10:03:01.440Z,62.50
2023-03-26T10:11:26.982Z,63.10
2023-03-26T10:14:20.669Z,60.90
2023-03-26T10:20:18.532Z,58.70
2023-03-26T10:23:01.864Z,59.30
2023-03-26T10:25:49.327Z,62.10
2023-03-26T10:31:33.916Z,62.00
2023-03-26T10:34:28.498Z,56.30
2023-03-26T10:40:09.601Z,62.30
2023-03-26T10:45:45.044Z,59.60
2023-03-26T10:51:45.934Z,59.30
2023-03-26T10:57:39.349Z,58.90
2023-03-26T11:06:05.609Z,60.60
2023-03-26T11:08:58.608Z,58.80
2023-03-26T11:26:14.248Z,51.40
2023-03-26T11:29:03.278Z,52.80
2023-03-26T11:32:16.517Z,52.00
2023-03-26T11:38:18.265Z,52.10
2023-03-26T11:41:11.100Z,49.00
2023-03-26T11:46:35.377Z,53.20
2023-03-26T11:49:09.322Z,50.60
2023-03-26T11:51:49.069Z,53.70
2023-03-26T11:59:57.905Z,49.80
2023-03-26T12:02:36.620Z,53.40
2023-03-26T12:05:24.929Z,51.60
2023-03-26T12:13:50.415Z,52.30
2023-03-26T12:16:26.854Z,51.00
2023-03-26T12:24:40.805Z,49.40
2023-03-26T12:30:15.153Z,49.00
2023-03-26T12:32:53.417Z,48.60
2023-03-26T12:35:35.719Z,46.60
2023-03-26T12:42:52.599Z,50.20
2023-03-26T12:44:55.186Z,47.10
2023-03-26T12:48:01.001Z,48.00
2023-03-26T12:53:43.973Z,49.90
2023-03-26T12:56:40.978Z,48.70
2023-03-26T12:59:59.979Z,48.50
2023-03-26T13:08:31.226Z,48.10
2023-03-26T13:11:05.002Z,46.60
2023-03-26T13:19:27.122Z,47.60
2023-03-26T13:22:23.633Z,49.50
2023-03-26T13:25:02.666Z,50.70
2023-03-26T13:27:52.427Z,50.40
2023-03-26T13:30:36.306Z,50.50
2023-03-26T13:33:15.398Z,51.00
2023-03-26T13:35:51.504Z,49.90
2023-03-26T13:41:31.934Z,51.00
2023-03-26T13:44:12.910Z,50.70
2023-03-26T14:05:23.788Z,47.00
2023-03-26T15:01:04.375Z,51.10
2023-03-26T15:22:26.108Z,52.80
2023-03-26T15:25:06.757Z,53.00
2023-03-26T15:27:48.814Z,53.10
2023-03-26T15:49:06.264Z,54.30
2023-03-26T16:03:44.108Z,53.10
2023-03-26T16:35:44.212Z,58.40
2023-03-26T19:55:26.438Z,74.00
2023-03-26T19:57:54.730Z,74.10
2023-03-26T20:00:26.483Z,73.10
2023-03-26T20:08:41.395Z,73.40
2023-03-26T20:11:34.340Z,73.70
2023-03-26T20:14:03.528Z,73.30
2023-03-26T20:16:35.821Z,73.00
2023-03-26T20:19:05.516Z,73.30
2023-03-26T20:21:40.696Z,73.10
2023-03-26T20:24:15.397Z,73.60
2023-03-26T20:26:45.228Z,75.00
2023-03-26T20:29:13.549Z,76.30
2023-03-26T20:32:02.232Z,74.70
2023-03-26T20:34:34.466Z,74.80
2023-03-26T20:37:02.516Z,73.90
2023-03-26T20:39:33.549Z,75.60
2023-03-26T20:42:00.323Z,75.50
2023-03-26T20:44:30.773Z,73.30
2023-03-26T20:46:59.309Z,75.60
2023-03-26T20:49:29.884Z,73.90
2023-03-26T20:51:58.942Z,76.50
2023-03-26T20:54:27.432Z,74.80
2023-03-26T20:56:54.584Z,76.00
2023-03-26T20:59:25.608Z,76.90
2023-03-26T21:01:53.833Z,77.00
2023-03-26T21:04:25.108Z,76.10
2023-03-26T21:06:57.573Z,76.50
2023-03-26T21:09:36.521Z,74.70
2023-03-26T21:12:10.689Z,76.70
2023-03-26T21:14:51.594Z,76.70
2023-03-26T21:17:23.186Z,77.80
2023-03-26T21:19:56.852Z,76.10
2023-03-26T21:22:46.235Z,76.00
2023-03-26T21:25:17.752Z,76.10
2023-03-26T21:27:52.835Z,78.20
2023-03-26T21:30:19.955Z,76.50
2023-03-26T21:32:49.382Z,77.60
2023-03-26T21:35:19.256Z,75.80
2023-03-26T21:37:48.866Z,75.10
2023-03-26T21:40:17.111Z,75.20
2023-03-26T21:42:48.767Z,77.30
2023-03-26T21:45:15.711Z,76.50
2023-03-26T21:47:43.824Z,76.60
2023-03-26T21:50:14.960Z,77.10
2023-03-26T21:52:52.380Z,76.90
2023-03-26T21:55:21.314Z,76.50
2023-03-26T21:58:01.522Z,76.80
2023-03-26T22:00:42.828Z,77.60
2023-03-26T22:03:23.376Z,77.00
2023-03-26T22:05:53.516Z,77.40
2023-03-26T22:08:28.145Z,79.10
2023-03-26T22:10:55.004Z,79.00
2023-03-26T22:13:21.798Z,78.40
2023-03-26T22:15:49.404Z,78.00
2023-03-26T22:18:16.421Z,77.60
2023-03-26T22:20:46.536Z,77.10
2023-03-26T22:23:13.338Z,77.00
2023-03-26T22:25:40.203Z,77.40
2023-03-26T22:28:06.864Z,77.50
2023-03-26T22:30:33.627Z,78.40
2023-03-26T22:33:00.728Z,78.40
2023-03-26T22:35:27.991Z,78.10
2023-03-26T22:38:00.958Z,77.50
2023-03-26T22:40:28.654Z,76.90
2023-03-26T22:42:55.321Z,78.20
2023-03-26T22:45:22.967Z,77.90
2023-03-26T22:47:50.555Z,76.40
2023-03-26T22:50:17.332Z,78.00
2023-03-26T22:52:44.148Z,78.30
2023-03-26T22:55:15.738Z,78.50
2023-03-26T22:57:56.073Z,79.00
2023-03-26T23:00:22.815Z,79.40
2023-03-26T23:02:50.051Z,79.50
2023-03-26T23:05:20.468Z,78.70
2023-03-26T23:07:47.409Z,78.40
2023-03-26T23:10:14.102Z,78.00
2023-03-26T23:12:41.749Z,78.20
2023-03-26T23:15:10.625Z,78.40
2023-03-26T23:17:41.664Z,79.30
2023-03-26T23:20:15.377Z,79.10
2023-03-26T23:22:42.785Z,79.40
2023-03-26T23:25:12.730Z,79.50
2023-03-26T23:27:42.600Z,79.20
2023-03-26T23:30:10.970Z,78.00
2023-03-26T23:32:38.065Z,78.80
2023-03-26T23:35:05.125Z,78.70
2023-03-26T23:37:35.688Z,77.40
2023-03-26T23:40:07.349Z,78.10
2023-03-26T23:42:34.611Z,78.50
2023-03-26T23:45:01.523Z,79.60
2023-03-26T23:47:34.679Z,78.70
2023-03-26T23:50:04.964Z,78.50
2023-03-26T23:52:31.957Z,78.20
2023-03-26T23:55:02.139Z,79.10
2023-03-26T23:57:29.114Z,79.00
2023-03-26T23:59:56.244Z,79.30
